Nearby METAR Reports

 

KBAX - Bad Axe, Michigan, USA
Distance from station: ESE 22mi, 35km
Updated: Fri, 15-Dec-2017 10:35am EST
Light snow, Overcast
Light snow, Overcast
 Wind from S
Wind: S 12 mph , 19 km/h
Temperature: 19°F , -7°C
Wind Chill: 6°F , -14°C
Dew Point: 18°F , -8°C
Humidity: 93%
Barometer: 29.78 inHg , 1008.5 hPa
Summary: Light Snow
Clouds: Overcast
Visibility: 2 1/2 miles , 4 km
Cloud details: Partly cloudy 1700 ft
Overcast 3100 ft
2017/12/15 15:35 KBAX 151535Z AUTO 18010KT 2 1/2SM -SN SCT017 OVC031 M07/M08 A2978 RMK AO2 T10691085
KFNT - Flint, Michigan, USA
Distance from station: SSW 68mi, 109km
Updated: Fri, 15-Dec-2017 10:12am EST
Light snow, Overcast
Light snow, Overcast
 Wind from SSW
Wind: SSW 12 mph , 19 km/h
Temperature: 19°F , -7°C
Wind Chill: 6°F , -14°C
Dew Point: 14°F , -10°C
Humidity: 79%
Barometer: 29.81 inHg , 1009.5 hPa
Summary: Light Snow
Clouds: Overcast
Visibility: 1 mile , 2 km
Cloud details: Mostly cloudy 2300 ft
Overcast 3400 ft
2017/12/15 15:12 KFNT 151512Z 21010KT 1SM R09/P6000FT -SN BKN023 OVC034 M07/M10 A2981 RMK AO2 SNB1458 P0000 T10671100 $
KMBS - Saginaw, Michigan, USA
Distance from station: SW 44mi, 70km
Updated: Fri, 15-Dec-2017 10:32am EST
Light snow, Freezing, Fog, Overcast
Light snow, Freezing, Fog, Overcast
 Wind from SSW
Wind: SSW 10 mph , 17 km/h
Temperature: 21°F , -6°C
Wind Chill: 10°F , -12°C
Dew Point: 19°F , -7°C
Humidity: 93%
Barometer: 29.78 inHg , 1008.5 hPa
Summary: Light snow, Freezing, Fog
Clouds: Overcast
Visibility: 1/2 mile , 0.8 km
Cloud details: Mostly cloudy 1100 ft
Overcast 2000 ft
2017/12/15 15:32 KMBS 151532Z 21009KT 1/2SM R23/3500V5500FT -SN FZFG BKN011 OVC020 M06/M07 A2978 RMK AO2 P0000 T10611067
 
KDTW - Detroit/Wayne, Michigan, USA
Distance from station: SSE 117mi, 188km
Updated: Fri, 15-Dec-2017 10:35am EST
Light snow, Overcast
Light snow, Overcast
 Wind from SSW
Wind: SSW 17 mph , 28 km/h
Temperature: 27°F , -3°C
Wind Chill: 14°F , -10°C
Dew Point: 18°F , -8°C
Humidity: 69%
Barometer: 29.87 inHg , 1011.5 hPa
Summary: Light Snow
Clouds: Overcast
Visibility: 2 miles , 3 km
Cloud details: Overcast 3500 ft
2017/12/15 15:35 KDTW 151535Z 21015KT 2SM -SN OVC035 M03/M08 A2987 RMK AO2 P0000 T10281083 $
KP58 - Port Hope, Michigan, USA
Distance from station: ENE 30mi, 48km
Updated: Fri, 15-Dec-2017 9:51am EST

 Wind from varies
Wind: varies 7 mph , 11 km/h
Temperature: 19°F , -7°C
Wind Chill: 10°F , -12°C
Dew Point: 16°F , -9°C
Humidity: 86%
Barometer: 29.78 inHg , 1008.5 hPa
2017/12/15 14:51 KP58 151451Z AUTO VRB06KT M07/M09 A2978 RMK AO1 SLP102 60001 T10671089 58025
KCFS - Caro/Tuscola, Michigan, USA
Distance from station: S 31mi, 50km
Updated: Fri, 15-Dec-2017 10:35am EST
Light snow, Overcast
Light snow, Overcast
 Wind from S
Wind: S 10 mph , 17 km/h
Temperature: 21°F , -6°C
Wind Chill: 10°F , -12°C
Dew Point: 18°F , -8°C
Humidity: 86%
Barometer: 29.77 inHg , 1008.1 hPa
Summary: Light Snow
Clouds: Overcast
Visibility: 2 1/2 miles , 4 km
Cloud details: Mostly cloudy 1000 ft
Overcast 1500 ft
2017/12/15 15:35 KCFS 151535Z AUTO 18009KT 2 1/2SM -SN BKN010 OVC015 M06/M08 A2977 RMK AO2 VIS 1 3/4V3 T10621081
 
KPHN - Port Huron, Michigan, USA
Distance from station: SSE 81mi, 131km
Updated: Fri, 15-Dec-2017 10:35am EST
Overcast
Overcast
 Wind from SSW
Wind: SSW 8 mph , 13 km/h
Temperature: 23°F , -5°C
Wind Chill: 14°F , -10°C
Dew Point: 12°F , -11°C
Humidity: 63%
Barometer: 29.84 inHg , 1010.5 hPa
Clouds: Overcast
Visibility: 10 miles , 16 km
Cloud details: Overcast 6000 ft
2017/12/15 15:35 KPHN 151535Z AUTO 21007KT 10SM OVC060 M05/M11 A2984 RMK AO2
KPTK - Pontiac, Michigan, USA
Distance from station: S 86mi, 138km
Updated: Fri, 15-Dec-2017 9:53am EST
Light snow, Overcast
Light snow, Overcast
 Wind from SSW
Wind: SSW 6 mph , 9 km/h
Temperature: 19°F , -7°C
Wind Chill: 11°F , -12°C
Dew Point: 14°F , -10°C
Humidity: 79%
Barometer: 29.81 inHg , 1009.5 hPa
Summary: Light Snow
Clouds: Overcast
Visibility: 9 miles , 14 km
Cloud details: Mostly cloudy 5500 ft
Overcast 9000 ft
2017/12/15 14:53 KPTK 151453Z 20005KT 9SM -SN BKN055 OVC090 M07/M10 A2981 RMK AO2 SNB33 SLP115 P0000 60000 T10671100 57020
KMTC - Selfridge Angb, Michigan, USA
Distance from station: SSE 94mi, 151km
Updated: Fri, 15-Dec-2017 10:03am EST
Light snow, Low drifting, Snow, Overcast
Light snow, Low drifting, Snow, Overcast
 Wind from SSW
Wind: SSW 13 mph , 20 km/h, Gust: 22 mph , 35 km/h
Temperature: 23°F , -5°C
Wind Chill: 11°F , -12°C
Dew Point: 16°F , -9°C
Humidity: 74%
Barometer: 29.85 inHg , 1010.8 hPa
Summary: Light snow, Low drifting, Snow
Clouds: Overcast
Visibility: 7 miles , 11 km
Cloud details: Partly cloudy 2100 ft
Mostly cloudy 2900 ft
Overcast 4800 ft
2017/12/15 15:03 KMTC 151503Z 21011G19KT 7SM -SN DRSN SCT021 BKN029 OVC048 M05/M09 A2985 RMK AO2A SNB03 SLP124